Terminal Aerodrome Forecast
Issued by NWS

Current Version | Previous Version | Graphics & Text | Print | Product List | Glossary On
Versions: 1 2 3 4 5 6 7 8 9 10 11 12 13 14 15 16 17 18 19 20 21 22 23 24
000
FTUS41 KILN 310900 AAA
TAFLCK
TAF AMD
KLCK 310945Z 3110/0106 18004KT 4SM -SHRA BR BKN014 OVC020
     FM311100 18006KT 3SM -SHRA BR OVC005
     FM311600 20009KT 4SM HZ VCTS OVC008CB
     FM311800 20010KT P6SM VCTS OVC013CB
     FM312100 20009KT P6SM VCTS OVC020CB
     FM010100 19006KT P6SM BKN025=

USA.gov is the U.S. government's official web portal to all federal, state and local government web resources and services.